Time;durP1;ratioP1;P1;durP2;ratioP2;P2;SDS_P1;SDS_P2;PMS_P1;PMS_P2;Temp;Humidity;BMP_temperature;BMP_pressure;BME280_temperature;BME280_humidity;BME280_pressure;Samples;Min_cycle;Max_cycle;Signal;HPM_P1;HPM_P2
2021/04/15 00:00:57;;;;;;;5.77;4.67;;;3.00;47.70;4.10;101697.00;;;;4925438;29;20550;-79
2021/04/15 00:03:29;;;;;;;17.23;5.50;;;3.00;48.00;4.10;67156.00;;;;4914233;29;20971;-83
2021/04/15 00:06:01;;;;;;;7.30;5.63;;;3.00;48.00;4.10;101687.00;;;;4926354;29;20476;-80
2021/04/15 00:08:28;;;;;;;6.30;5.70;;;3.00;48.00;4.00;67150.00;;;;4930527;29;20470;-84
2021/04/15 00:10:59;;;;;;;5.27;4.73;;;3.00;48.50;4.10;101692.00;;;;4925105;29;20453;-81
2021/04/15 00:14:07;;;;;;;5.40;4.83;;;2.90;48.50;4.10;101698.00;;;;4929575;29;20501;-81
2021/04/15 00:16:49;;;;;;;6.53;5.37;;;2.90;48.60;4.10;101680.00;;;;4925160;29;20498;-82
2021/04/15 00:19:19;;;;;;;7.80;5.63;;;2.80;49.10;217.30;158398.00;;;;4921164;29;20462;-81
2021/04/15 00:21:48;;;;;;;5.70;5.20;;;2.90;49.20;4.10;101687.00;;;;4920480;29;20518;-81
2021/04/15 00:24:17;;;;;;;5.40;4.90;;;2.90;49.10;3.90;101687.00;;;;4914389;29;20485;-80
2021/04/15 00:26:44;;;;;;;6.20;5.43;;;2.90;48.70;52.70;158402.00;;;;4921103;29;20461;-80
2021/04/15 00:29:12;;;;;;;6.07;4.90;;;2.90;48.70;4.00;101679.00;;;;4911554;29;20461;-80
2021/04/15 00:31:39;;;;;;;6.37;5.30;;;2.90;48.50;4.00;101678.00;;;;4913328;29;21363;-83
2021/04/15 00:34:07;;;;;;;7.90;6.00;;;2.90;49.00;4.00;101690.00;;;;4923237;29;21038;-80
2021/04/15 00:36:35;;;;;;;6.20;5.60;;;2.80;49.10;217.30;158386.00;;;;4913086;29;20491;-80
2021/04/15 00:39:04;;;;;;;6.50;5.47;;;2.80;49.30;4.00;101681.00;;;;4921815;29;20454;-80
2021/04/15 00:41:32;;;;;;;5.90;5.40;;;2.80;49.30;4.00;101674.00;;;;4918856;29;20552;-82
2021/04/15 00:44:00;;;;;;;7.10;5.43;;;2.80;49.50;3.90;101662.00;;;;4926769;29;20604;-82
2021/04/15 00:46:56;;;;;;;6.20;5.60;;;2.80;49.10;4.00;101679.00;;;;4914996;29;20461;-80
2021/04/15 00:49:30;;;;;;;7.10;5.67;;;2.80;49.20;3.90;101666.00;;;;4925341;29;21158;-80
2021/04/15 00:52:02;;;;;;;5.77;5.27;;;2.80;49.30;3.90;101664.00;;;;4928943;29;20469;-82
2021/04/15 00:54:40;;;;;;;7.07;5.00;;;2.70;49.50;3.90;101669.00;;;;4918415;29;20564;-81
2021/04/15 00:57:16;;;;;;;5.33;4.83;;;2.70;49.80;3.90;101657.00;;;;4921555;29;20493;-81
2021/04/15 00:59:44;;;;;;;6.10;5.60;;;2.70;49.90;3.90;101651.00;;;;4937127;29;20472;-81
2021/04/15 01:02:16;;;;;;;6.13;5.43;;;2.70;50.30;3.80;101661.00;;;;4927839;29;20532;-83
2021/04/15 01:04:44;;;;;;;6.63;6.03;;;2.60;50.30;217.30;158328.00;;;;4927450;29;21155;-84
2021/04/15 01:07:13;;;;;;;10.10;6.07;;;2.70;50.10;3.80;101659.00;;;;4930311;29;20475;-82
2021/04/15 01:09:41;;;;;;;7.70;5.70;;;2.60;50.30;3.80;101644.00;;;;4938157;29;20457;-82
2021/04/15 01:12:43;;;;;;;5.63;4.97;;;2.70;50.40;3.80;101666.00;;;;4948609;29;21038;-82
2021/04/15 01:15:26;;;;;;;6.63;5.90;;;2.70;50.20;3.80;101644.00;;;;4940860;29;20484;-81
2021/04/15 01:17:58;;;;;;;6.30;5.80;;;2.60;50.40;3.80;67077.00;;;;4946337;29;20454;-81
2021/04/15 01:21:26;;;;;;;8.20;5.30;;;2.60;50.30;3.80;101642.00;;;;4938675;29;20464;-83
2021/04/15 01:24:02;;;;;;;6.80;4.83;;;2.60;50.20;3.70;101639.00;;;;4888498;29;20483;-81
2021/04/15 01:27:22;;;;;;;9.23;6.23;;;2.50;50.70;3.70;101660.00;;;;4923950;29;20469;-82
2021/04/15 01:30:02;;;;;;;7.23;5.40;;;2.50;51.20;3.70;101660.00;;;;4938730;29;20452;-85
2021/04/15 01:32:35;;;;;;;5.60;5.10;;;2.50;51.40;3.70;67074.00;;;;4952905;29;20461;-82
2021/04/15 01:35:09;;;;;;;7.10;5.20;;;2.50;51.10;217.30;158261.00;;;;4940273;29;20496;-81
2021/04/15 01:37:46;;;;;;;6.27;5.30;;;2.50;51.40;3.70;101648.00;;;;4932705;29;20538;-79
2021/04/15 01:40:22;;;;;;;6.10;5.43;;;2.50;51.90;3.70;101658.00;;;;4936098;29;20732;-80
2021/04/15 01:42:56;;;;;;;6.40;5.80;;;2.50;52.20;3.70;67067.00;;;;4937801;29;20452;-82
2021/04/15 01:45:25;;;;;;;8.20;5.90;;;2.40;52.00;217.30;158245.00;;;;4937053;29;20476;-81
2021/04/15 01:48:01;;;;;;;10.23;5.60;;;2.40;52.60;3.70;101658.00;;;;4927937;29;20456;-83
2021/04/15 01:50:35;;;;;;;6.87;5.90;;;2.40;52.50;217.30;158237.00;;;;4937947;29;20461;-81
2021/04/15 01:53:07;;;;;;;8.10;5.87;;;2.60;52.50;52.70;158231.00;;;;4935830;29;20579;-80
2021/04/15 01:55:41;;;;;;;9.23;6.20;;;2.40;52.50;3.60;101676.00;;;;4937361;29;20481;-82
2021/04/15 01:58:15;;;;;;;7.00;5.57;;;2.40;52.70;3.60;101652.00;;;;4934552;29;20947;-79
2021/04/15 02:00:46;;;;;;;6.43;5.90;;;2.40;53.10;3.60;101664.00;;;;4929670;29;20963;-80
2021/04/15 02:03:19;;;;;;;6.70;6.00;;;2.30;53.30;3.60;101659.00;;;;4937371;29;20487;-84
2021/04/15 02:05:50;;;;;;;6.73;5.47;;;2.30;54.20;3.50;101655.00;;;;4930021;29;20465;-81
2021/04/15 02:08:24;;;;;;;7.90;6.30;;;2.30;53.50;3.60;101653.00;;;;4930561;29;20913;-81
2021/04/15 02:10:57;;;;;;;7.67;6.47;;;2.30;53.60;217.30;158199.00;;;;4922601;29;20461;-80
2021/04/15 02:13:26;;;;;;;8.30;6.50;;;2.30;54.10;217.30;158209.00;;;;4939179;29;20541;-82
2021/04/15 02:16:01;;;;;;;8.13;5.97;;;2.30;54.20;217.30;158199.00;;;;4931229;29;20465;-81
2021/04/15 02:18:34;;;;;;;8.60;6.20;;;2.30;54.20;3.60;101651.00;;;;4914924;29;21050;-82
2021/04/15 02:21:09;;;;;;;6.67;5.90;;;2.20;54.10;3.60;67011.00;;;;4934858;29;20466;-80
2021/04/15 02:23:47;;;;;;;10.73;8.20;;;2.20;54.10;3.50;67027.00;;;;4927045;29;20486;-80
2021/04/15 02:26:20;;;;;;;6.67;5.77;;;2.20;54.10;217.30;158144.00;;;;4933411;29;20461;-84
2021/04/15 02:28:56;;;;;;;8.23;7.40;;;2.10;54.50;3.50;67008.00;;;;4936958;29;20461;-84
2021/04/15 02:31:29;;;;;;;11.10;7.00;;;2.10;55.10;217.30;158138.00;;;;4925913;29;20459;-82
2021/04/15 02:34:03;;;;;;;7.70;6.93;;;2.30;55.00;3.40;101669.00;;;;4936643;29;20492;-81
2021/04/15 02:36:41;;;;;;;7.97;6.33;;;2.10;54.80;3.40;101666.00;;;;4928538;29;20890;-83
2021/04/15 02:39:14;;;;;;;7.93;7.10;;;2.10;54.90;3.40;101665.00;;;;4923616;29;20548;-80
2021/04/15 02:41:43;;;;;;;8.50;7.20;;;2.10;55.00;3.40;101663.00;;;;4925295;29;20921;-81
2021/04/15 02:44:18;;;;;;;7.63;6.93;;;2.10;55.30;3.30;101654.00;;;;4920658;29;20480;-81
2021/04/15 02:46:52;;;;;;;7.57;6.53;;;2.10;55.30;3.40;101655.00;;;;4915854;29;20790;-80
2021/04/15 02:49:22;;;;;;;8.63;6.73;;;2.10;55.40;3.40;101664.00;;;;4914393;29;20565;-82
2021/04/15 02:51:56;;;;;;;8.30;6.90;;;2.10;55.40;217.30;158102.00;;;;4914319;29;20454;-83
2021/04/15 02:54:30;;;;;;;8.03;7.23;;;2.10;55.30;3.30;66980.00;;;;4921345;29;20489;-80
2021/04/15 02:57:08;;;;;;;7.47;6.70;;;2.10;55.30;3.30;101661.00;;;;4928917;29;20461;-83
2021/04/15 02:59:40;;;;;;;10.07;7.63;;;2.10;55.30;3.30;66969.00;;;;4937037;29;20468;-82
2021/04/15 03:02:12;;;;;;;8.03;7.30;;;2.10;55.60;3.30;101660.00;;;;4944042;29;20453;-83
2021/04/15 03:04:43;;;;;;;8.77;8.00;;;2.10;55.40;3.30;101663.00;;;;4922452;29;20588;-82
2021/04/15 03:07:12;;;;;;;8.57;7.50;;;2.10;55.40;3.30;101670.00;;;;4927954;29;20505;-83
2021/04/15 03:09:42;;;;;;;12.40;7.70;;;2.10;55.70;3.30;101661.00;;;;4922765;29;20449;-81
2021/04/15 03:12:16;;;;;;;8.43;7.53;;;2.00;55.70;3.30;101669.00;;;;4921378;29;20457;-81
2021/04/15 03:14:51;;;;;;;9.67;7.70;;;2.00;56.00;3.30;101661.00;;;;4923350;29;20595;-80
2021/04/15 03:17:22;;;;;;;22.60;8.60;;;2.00;56.60;3.30;101658.00;;;;4938224;29;20479;-85
2021/04/15 03:19:56;;;;;;;8.13;7.43;;;2.00;56.40;3.20;101649.00;;;;4940743;29;20445;-83
2021/04/15 03:22:30;;;;;;;8.77;7.83;;;2.00;56.40;3.20;101639.00;;;;4936805;29;20445;-83
2021/04/15 03:25:00;;;;;;;9.37;7.40;;;2.00;56.70;52.70;158070.00;;;;4938938;29;20493;-82
2021/04/15 03:27:35;;;;;;;10.93;7.63;;;2.10;56.70;3.30;101599.00;;;;4933885;29;20470;-83
2021/04/15 03:30:11;;;;;;;9.00;8.10;;;2.00;56.70;3.30;101668.00;;;;4938916;28;20494;-80
2021/04/15 03:32:44;;;;;;;10.00;8.50;;;2.10;56.40;3.20;101679.00;;;;4922374;29;20476;-80
2021/04/15 03:35:26;;;;;;;8.40;7.60;;;2.10;56.40;3.20;101676.00;;;;4929807;29;20589;-81
2021/04/15 03:38:01;;;;;;;9.47;8.13;;;2.10;55.90;3.20;101674.00;;;;4935396;29;20492;-80
2021/04/15 03:40:32;;;;;;;9.50;8.40;;;2.00;56.00;3.20;101673.00;;;;4944760;29;20457;-80
2021/04/15 03:43:04;;;;;;;10.53;8.80;;;2.00;56.10;3.20;101682.00;;;;4935110;29;20457;-81
2021/04/15 03:45:39;;;;;;;9.77;8.77;;;2.00;56.10;3.20;101669.00;;;;4947127;29;20497;-81
2021/04/15 03:48:13;;;;;;;11.90;9.47;;;2.00;56.10;52.70;158045.00;;;;4949314;28;20471;-80
2021/04/15 03:50:50;;;;;;;11.50;9.60;;;1.90;56.40;3.20;101565.00;;;;4941827;28;20462;-81
2021/04/15 03:53:23;;;;;;;10.40;9.30;;;1.90;56.00;3.10;101682.00;;;;4953383;29;20481;-81
2021/04/15 03:55:56;;;;;;;11.70;8.57;;;2.00;56.50;3.10;101685.00;;;;4955986;29;20455;-80
2021/04/15 03:58:31;;;;;;;10.00;9.00;;;1.80;56.70;3.00;101674.00;;;;4949958;28;20454;-80
2021/04/15 04:01:06;;;;;;;10.53;9.33;;;1.90;56.50;3.10;101669.00;;;;4935698;29;20472;-80
2021/04/15 04:03:39;;;;;;;11.27;9.57;;;1.80;56.90;3.00;101686.00;;;;4940347;29;20592;-81
2021/04/15 04:06:13;;;;;;;11.50;9.43;;;1.80;57.00;3.00;101670.00;;;;4927499;29;20505;-81
2021/04/15 04:08:48;;;;;;;11.03;9.90;;;1.80;57.30;3.00;101676.00;;;;4935664;29;20469;-81
2021/04/15 04:11:20;;;;;;;13.90;12.07;;;1.70;57.80;3.00;101686.00;;;;4938092;29;20464;-80
2021/04/15 04:13:50;;;;;;;11.20;10.10;;;1.70;57.90;3.00;101676.00;;;;4934724;29;20489;-80
2021/04/15 04:16:24;;;;;;;11.77;10.57;;;1.80;58.10;3.00;101671.00;;;;4934985;29;20473;-82
2021/04/15 04:19:01;;;;;;;12.90;11.50;;;1.80;57.60;217.30;157951.00;;;;4938830;29;20486;-80
2021/04/15 04:21:43;;;;;;;14.20;10.50;;;1.80;57.50;3.00;101691.00;;;;4944356;29;20457;-80
2021/04/15 04:24:21;;;;;;;14.13;10.83;;;1.80;57.50;3.00;101695.00;;;;4952616;29;20457;-80
2021/04/15 04:26:56;;;;;;;16.20;10.70;;;1.90;57.70;2.90;101680.00;;;;4941620;28;20442;-80
2021/04/15 04:29:36;;;;;;;14.70;11.33;;;1.70;57.70;217.30;157925.00;;;;4925356;29;20457;-79
2021/04/15 04:32:11;;;;;;;12.60;11.17;;;1.70;58.00;2.90;101701.00;;;;4946071;29;20441;-80
2021/04/15 04:34:41;;;;;;;15.50;10.80;;;1.70;58.10;217.30;157918.00;;;;4933006;29;20488;-81
2021/04/15 04:37:13;;;;;;;12.27;11.07;;;1.70;58.30;217.30;157931.00;;;;4932689;29;20525;-82
2021/04/15 04:39:42;;;;;;;12.50;10.77;;;1.70;58.10;3.00;101704.00;;;;4947565;28;20481;-81
2021/04/15 04:42:23;;;;;;;16.80;11.00;;;1.80;57.70;3.00;101699.00;;;;4942071;29;20532;-80
2021/04/15 04:44:55;;;;;;;16.80;11.87;;;1.80;57.80;3.00;66911.00;;;;4926669;29;20528;-81
2021/04/15 04:47:35;;;;;;;16.37;11.90;;;1.80;57.20;3.00;101689.00;;;;4926071;29;20541;-80
2021/04/15 04:50:09;;;;;;;10.30;8.60;;;1.80;57.00;3.00;101697.00;;;;4925740;29;20460;-82
2021/04/15 04:52:37;;;;;;;14.13;11.87;;;1.90;57.30;3.10;101694.00;;;;4931195;29;20536;-80
2021/04/15 04:55:27;;;;;;;13.53;11.57;;;1.90;56.90;3.10;101699.00;;;;4937264;29;20489;-81
2021/04/15 04:58:02;;;;;;;16.53;11.90;;;1.90;57.20;3.10;101695.00;;;;4922940;29;21038;-80
2021/04/15 05:00:30;;;;;;;14.20;11.67;;;1.90;57.40;3.20;101718.00;;;;4919807;29;20458;-80
2021/04/15 05:02:58;;;;;;;15.80;12.90;;;1.90;57.30;3.20;101709.00;;;;4922130;29;20461;-80
2021/04/15 05:05:29;;;;;;;14.30;12.57;;;1.90;57.00;3.30;101712.00;;;;4915762;29;20477;-81
2021/04/15 05:08:04;;;;;;;15.20;12.70;;;2.00;56.80;3.40;101715.00;;;;4934989;29;20485;-81
2021/04/15 05:10:33;;;;;;;14.70;12.90;;;2.00;56.40;3.40;101708.00;;;;4916821;29;20471;-80
2021/04/15 05:13:11;;;;;;;15.50;12.33;;;2.10;55.60;217.30;158170.00;;;;4927732;29;20498;-81
2021/04/15 05:15:40;;;;;;;13.60;11.90;;;2.30;55.60;217.30;158170.00;;;;4915776;29;20476;-81
2021/04/15 05:18:12;;;;;;;14.20;12.70;;;2.30;55.30;3.60;101714.00;;;;4929245;29;20479;-81
2021/04/15 05:20:42;;;;;;;12.17;11.00;;;2.20;54.80;217.30;158193.00;;;;4921674;29;20481;-80
2021/04/15 05:23:21;;;;;;;12.50;11.30;;;2.30;54.60;3.70;67057.00;;;;4920975;29;20927;-80
2021/04/15 05:26:10;;;;;;;13.57;12.27;;;2.30;54.80;217.30;158267.00;;;;4922844;29;20556;-81
2021/04/15 05:28:39;;;;;;;13.13;11.50;;;2.40;54.30;3.70;67071.00;;;;4916003;29;20469;-81
2021/04/15 05:31:10;;;;;;;12.70;11.40;;;2.40;54.00;3.80;101712.00;;;;4916371;29;20477;-80
2021/04/15 05:33:39;;;;;;;14.87;13.47;;;2.50;53.50;3.80;101709.00;;;;4923505;29;20551;-82
2021/04/15 05:36:13;;;;;;;10.73;8.50;;;2.60;53.10;3.90;101705.00;;;;4925400;29;20481;-80
2021/04/15 05:38:45;;;;;;;13.37;12.03;;;2.60;52.30;52.70;158344.00;;;;4931632;29;20457;-82
2021/04/15 05:41:21;;;;;;;13.00;11.77;;;2.70;52.20;4.00;101720.00;;;;4927991;29;20948;-81
2021/04/15 05:43:53;;;;;;;13.27;11.87;;;2.70;51.80;4.10;101731.00;;;;4917532;29;20512;-81
2021/04/15 05:46:26;;;;;;;12.40;11.20;;;2.80;51.80;4.10;101708.00;;;;4915240;29;20457;-80
2021/04/15 05:48:58;;;;;;;12.50;11.07;;;2.90;51.60;217.30;158463.00;;;;4924198;29;20893;-79
2021/04/15 05:51:34;;;;;;;12.87;11.67;;;2.90;51.10;4.20;67183.00;;;;4918306;29;20462;-80
2021/04/15 05:54:10;;;;;;;12.00;10.70;;;3.00;50.70;4.20;67173.00;;;;4918266;29;20492;-81
2021/04/15 05:56:58;;;;;;;13.03;11.73;;;3.00;50.10;4.20;101699.00;;;;4919703;29;20461;-80
2021/04/15 05:59:42;;;;;;;12.17;10.80;;;3.00;50.00;4.20;101719.00;;;;4933797;29;20513;-80
2021/04/15 06:02:57;;;;;;;13.43;12.10;;;3.10;49.80;4.30;101720.00;;;;4926904;29;20768;-80
2021/04/15 06:05:34;;;;;;;12.70;11.13;;;3.10;49.30;4.40;101714.00;;;;4917331;29;20607;-79
2021/04/15 06:08:07;;;;;;;12.93;11.27;;;3.20;49.40;4.40;101714.00;;;;4922333;29;20812;-82
2021/04/15 06:10:38;;;;;;;13.07;11.73;;;3.20;48.90;4.40;101726.00;;;;4929175;29;20485;-81
2021/04/15 06:13:13;;;;;;;13.77;12.13;;;3.30;48.00;217.30;158643.00;;;;4911058;29;20462;-81
2021/04/15 06:15:47;;;;;;;11.63;9.37;;;3.40;48.10;52.70;158655.00;;;;4925718;29;20556;-80
2021/04/15 06:18:27;;;;;;;11.20;10.07;;;3.50;47.00;217.30;158665.00;;;;4928629;29;20499;-80
2021/04/15 06:21:00;;;;;;;12.17;11.10;;;3.60;46.90;4.80;101718.00;;;;4920272;29;20895;-81
2021/04/15 06:23:36;;;;;;;13.10;11.10;;;3.60;46.20;4.80;101724.00;;;;4927259;29;20865;-80
2021/04/15 06:26:05;;;;;;;12.07;10.90;;;3.60;45.90;4.70;101731.00;;;;4931704;29;20489;-82
2021/04/15 06:28:39;;;;;;;11.17;9.50;;;3.60;46.10;4.80;101727.00;;;;4934299;29;20470;-80
2021/04/15 06:31:20;;;;;;;14.13;11.07;;;3.60;46.70;4.80;101704.00;;;;4916783;29;20453;-80
2021/04/15 06:33:48;;;;;;;11.97;10.73;;;3.70;46.00;4.80;101723.00;;;;4928991;29;20516;-80
2021/04/15 06:36:27;;;;;;;14.50;13.00;;;3.70;46.00;5.00;101731.00;;;;4932233;29;20454;-80
2021/04/15 06:39:04;;;;;;;14.00;12.60;;;3.80;46.70;217.30;158848.00;;;;4927376;29;20459;-81
2021/04/15 06:42:39;;;;;;;12.10;10.90;;;3.90;46.00;5.20;101712.00;;;;4918840;29;20919;-79
2021/04/15 06:45:26;;;;;;;13.10;11.73;;;4.10;45.10;217.30;158992.00;;;;4924395;29;20518;-81
2021/04/15 06:48:20;;;;;;;13.20;11.80;;;4.20;45.00;5.40;101726.00;;;;4925582;29;20446;-81
2021/04/15 06:51:26;;;;;;;13.90;12.37;;;4.40;43.40;5.40;101739.00;;;;4918575;29;20477;-80
2021/04/15 06:54:30;;;;;;;13.67;12.37;;;4.30;43.20;5.60;101733.00;;;;4931319;29;20830;-82
2021/04/15 06:57:23;;;;;;;9.43;8.20;;;4.40;42.90;5.60;101726.00;;;;4935514;29;20453;-81
2021/04/15 07:00:20;;;;;;;13.47;12.13;;;4.50;42.50;5.70;67513.00;;;;4925754;29;20469;-81
2021/04/15 07:03:09;;;;;;;14.40;12.90;;;4.60;42.30;5.70;101730.00;;;;4924831;29;20841;-81
2021/04/15 07:05:46;;;;;;;13.83;12.00;;;4.60;40.90;5.80;101732.00;;;;4924551;29;20526;-82
2021/04/15 07:08:43;;;;;;;11.13;10.03;;;4.70;40.80;217.30;159181.00;;;;4918546;29;20499;-80
2021/04/15 07:11:28;;;;;;;13.50;11.03;;;4.80;39.50;5.90;101735.00;;;;4937566;29;20998;-79
2021/04/15 07:14:40;;;;;;;12.73;11.13;;;4.90;39.10;5.90;101730.00;;;;4927550;29;20488;-79
2021/04/15 07:17:48;;;;;;;13.13;11.27;;;4.80;38.20;5.70;101727.00;;;;4922989;29;20821;-80
2021/04/15 07:20:43;;;;;;;11.90;10.70;;;4.80;38.50;5.90;67562.00;;;;4927917;29;20480;-81
2021/04/15 07:24:15;;;;;;;13.80;12.13;;;4.90;38.00;6.20;101734.00;;;;4918939;29;20533;-80
2021/04/15 07:27:31;;;;;;;12.60;11.30;;;5.00;38.40;6.20;101728.00;;;;4884020;29;20469;-80
2021/04/15 07:30:43;;;;;;;11.70;9.10;;;5.20;34.70;6.20;101731.00;;;;4929261;29;20461;-80
2021/04/15 07:33:40;;;;;;;14.43;12.80;;;5.20;34.80;6.30;101722.00;;;;4936640;29;20471;-80
2021/04/15 07:37:03;;;;;;;12.87;11.57;;;5.30;35.50;6.60;101730.00;;;;4923467;29;20508;-79
2021/04/15 07:39:48;;;;;;;10.80;9.40;;;5.40;35.20;6.60;101715.00;;;;4904073;29;20948;-79
2021/04/15 07:42:59;;;;;;;12.13;10.90;;;5.50;33.50;6.60;101713.00;;;;4932102;29;20487;-79
2021/04/15 07:45:32;;;;;;;12.30;11.10;;;5.60;33.90;217.30;159457.00;;;;4918169;29;20579;-80
2021/04/15 07:48:35;;;;;;;15.83;11.17;;;5.60;33.60;6.70;101734.00;;;;4927726;29;20472;-80
2021/04/15 07:51:40;;;;;;;14.00;11.97;;;5.70;32.80;6.90;101735.00;;;;4942342;29;20445;-80
2021/04/15 07:54:43;;;;;;;14.00;10.73;;;5.90;31.30;7.00;101725.00;;;;4942060;29;20488;-81
2021/04/15 07:57:43;;;;;;;12.23;11.03;;;6.00;32.00;7.10;101736.00;;;;4933469;29;20457;-81
2021/04/15 08:00:32;;;;;;;13.80;10.77;;;6.00;30.80;7.20;101740.00;;;;4932783;29;20531;-80
2021/04/15 08:03:58;;;;;;;12.07;9.80;;;6.10;30.40;7.20;101729.00;;;;4936533;29;20465;-82
2021/04/15 08:06:50;;;;;;;13.70;12.30;;;6.10;31.10;7.50;101736.00;;;;4860711;29;20540;-81
2021/04/15 08:10:00;;;;;;;13.53;11.87;;;6.30;30.00;7.50;101729.00;;;;4918445;29;20467;-80
2021/04/15 08:12:55;;;;;;;12.23;10.00;;;6.50;29.00;7.50;101733.00;;;;4927541;29;20923;-81
2021/04/15 08:16:21;;;;;;;12.50;11.17;;;6.50;28.40;7.60;101748.00;;;;4910061;29;20493;-81
2021/04/15 08:19:04;;;;;;;11.70;10.27;;;6.60;28.20;7.80;101730.00;;;;4926208;29;20532;-80
2021/04/15 08:21:40;;;;;;;16.00;11.00;;;6.70;26.80;7.70;101733.00;;;;4926799;29;20482;-81
2021/04/15 08:24:29;;;;;;;11.20;10.00;;;6.70;26.20;7.80;101743.00;;;;4927851;29;20493;-80
2021/04/15 08:27:44;;;;;;;12.93;11.17;;;6.70;25.90;7.80;101735.00;;;;4935045;29;20516;-81
2021/04/15 08:30:34;;;;;;;13.20;10.83;;;6.80;26.50;7.80;101746.00;;;;4925509;29;20487;-80
2021/04/15 08:33:37;;;;;;;14.57;11.37;;;6.80;25.00;8.00;101745.00;;;;4915307;29;20465;-81
2021/04/15 08:36:35;;;;;;;12.60;10.30;;;7.00;24.80;52.70;160182.00;;;;4917386;29;20463;-81
2021/04/15 08:39:25;;;;;;;12.70;10.50;;;7.10;24.40;8.30;101739.00;;;;4914190;29;20912;-81
2021/04/15 08:42:08;;;;;;;13.03;10.20;;;7.20;24.30;8.30;68102.00;;;;4928248;29;21121;-80
2021/04/15 08:45:04;;;;;;;13.87;8.87;;;7.20;22.80;8.30;101737.00;;;;4918439;29;20492;-81
2021/04/15 08:47:53;;;;;;;10.23;8.50;;;7.30;21.80;8.30;101738.00;;;;4927228;29;20461;-81
2021/04/15 08:50:43;;;;;;;12.60;9.60;;;7.40;21.00;8.50;101728.00;;;;4917595;29;20465;-81
2021/04/15 08:53:29;;;;;;;15.23;10.57;;;7.50;21.00;8.60;101741.00;;;;4921923;29;20486;-81
2021/04/15 08:56:03;;;;;;;11.90;9.87;;;7.60;19.80;8.60;101730.00;;;;4929384;29;20453;-82
2021/04/15 08:58:59;;;;;;;12.37;9.80;;;7.80;20.90;8.80;101733.00;;;;4940367;29;20453;-82
2021/04/15 09:01:46;;;;;;;11.17;10.07;;;7.80;20.00;8.90;101723.00;;;;4917512;29;20509;-89
2021/04/15 09:04:17;;;;;;;11.90;10.70;;;7.90;20.30;217.30;160599.00;;;;4916303;29;20516;-81
2021/04/15 09:06:54;;;;;;;12.27;10.57;;;8.10;20.30;8.90;101745.00;;;;4916506;29;21011;-80
2021/04/15 09:09:34;;;;;;;15.50;12.40;;;8.00;18.90;8.50;101761.00;;;;4917022;29;20532;-80
2021/04/15 09:12:20;;;;;;;11.57;10.37;;;7.60;20.60;217.30;160341.00;;;;4936480;29;20461;-81
2021/04/15 09:15:09;;;;;;;12.40;11.10;;;7.30;20.70;9.00;101740.00;;;;4924092;29;20485;-82
2021/04/15 09:17:44;;;;;;;11.90;10.30;;;7.80;21.40;9.30;68317.00;;;;4931565;29;20453;-80
2021/04/15 09:20:19;;;;;;;13.60;12.20;;;8.30;15.40;9.80;101725.00;;;;4906148;29;20432;-80
2021/04/15 09:23:17;;;;;;;12.97;11.50;;;8.60;14.90;10.00;101729.00;;;;4929563;29;20485;-80
2021/04/15 09:26:01;;;;;;;11.43;10.33;;;8.80;15.50;10.00;68468.00;;;;4926686;29;20471;-81
2021/04/15 09:28:37;;;;;;;12.37;10.00;;;8.90;13.90;10.00;101720.00;;;;4918101;29;20473;-82
2021/04/15 09:31:15;;;;;;;11.40;10.30;;;9.00;13.50;9.70;101719.00;;;;4932765;29;20471;-79
2021/04/15 09:34:26;;;;;;;12.73;11.50;;;8.80;12.80;10.00;101722.00;;;;4931785;29;20467;-79
2021/04/15 09:37:17;;;;;;;10.13;7.53;;;8.90;9.50;9.80;101721.00;;;;4916693;29;20545;-79
2021/04/15 09:39:57;;;;;;;11.70;10.50;;;8.90;7.50;10.20;68523.00;;;;4929461;29;20436;-80
2021/04/15 09:42:42;;;;;;;9.68;8.60;;;9.10;6.60;10.30;101725.00;;;;4932405;29;20499;-79
2021/04/15 09:46:02;;;;;;;10.68;9.18;;;9.20;5.10;10.30;101723.00;;;;4934013;29;20459;-80
2021/04/15 09:48:56;;;;;;;9.60;7.30;;;9.30;4.00;10.20;101710.00;;;;4940438;29;20237;-80
2021/04/15 09:52:18;;;;;;;8.38;7.40;;;9.20;1.50;10.10;101707.00;;;;4935768;29;20423;-82
2021/04/15 09:55:08;;;;;;;9.60;8.60;;;9.00;1.00;10.50;101696.00;;;;4945896;29;20562;-80
2021/04/15 09:57:45;;;;;;;8.05;6.80;;;9.30;1.00;10.70;101702.00;;;;4937642;29;20436;-81
2021/04/15 10:00:21;;;;;;;8.63;7.80;;;9.50;1.00;10.80;101698.00;;;;4952522;29;20407;-81
2021/04/15 10:03:30;;;;;;;8.60;7.80;;;9.60;1.00;10.90;101702.00;;;;4936248;29;20908;-81
2021/04/15 10:06:08;;;;;;;9.10;8.20;;;9.90;1.00;217.30;161515.00;;;;4927847;29;20465;-80
2021/04/15 10:08:49;;;;;;;8.00;7.20;;;10.00;1.00;11.30;101706.00;;;;4948974;29;20597;-80
2021/04/15 10:11:42;;;;;;;9.07;8.25;;;10.20;1.00;52.70;161803.00;;;;4935752;29;20435;-81
2021/04/15 10:14:33;;;;;;;8.88;7.45;;;10.40;1.00;11.90;101685.00;;;;4937335;29;20433;-81
2021/04/15 10:17:24;;;;;;;7.90;6.75;;;10.60;1.00;11.30;101682.00;;;;4928378;29;20423;-81
2021/04/15 10:20:21;;;;;;;7.10;6.40;;;10.10;1.00;217.30;161622.00;;;;4936877;29;20463;-78
2021/04/15 10:23:17;;;;;;;10.27;7.35;;;10.00;1.00;11.80;101652.00;;;;4936548;29;20421;-80
2021/04/15 10:25:55;;;;;;;11.40;8.38;;;10.30;1.00;52.70;161809.00;;;;4936413;29;20426;-81
2021/04/15 10:28:58;;;;;;;8.52;7.40;;;10.30;1.00;11.80;101688.00;;;;4932970;29;20428;-80
2021/04/15 10:31:48;;;;;;;9.98;8.45;;;10.20;1.00;12.00;101677.00;;;;4928928;29;20420;-81
2021/04/15 10:34:49;;;;;;;8.82;7.85;;;10.40;1.00;12.10;101686.00;;;;4939994;29;20473;-81
2021/04/15 10:37:33;;;;;;;8.30;7.50;;;10.40;1.00;11.90;101680.00;;;;4937541;29;20431;-80
2021/04/15 10:40:52;;;;;;;11.68;8.05;;;10.30;1.00;11.80;101680.00;;;;4941996;29;20435;-80
2021/04/15 10:44:28;;;;;;;10.00;8.43;;;10.20;1.00;11.80;101682.00;;;;4943396;29;20463;-81
2021/04/15 10:47:11;;;;;;;7.43;6.72;;;10.30;1.00;11.70;101680.00;;;;4916394;29;20449;-81
2021/04/15 10:49:56;;;;;;;8.60;7.43;;;10.10;1.00;217.30;161818.00;;;;4939117;29;20468;-80
2021/04/15 10:52:51;;;;;;;9.95;8.65;;;10.30;1.00;217.30;161894.00;;;;4942357;29;20430;-79
2021/04/15 10:55:27;;;;;;;9.48;7.20;;;10.50;1.00;12.20;101684.00;;;;4943855;29;20453;-81
2021/04/15 10:58:28;;;;;;;8.00;7.20;;;10.60;1.00;217.30;162060.00;;;;4927327;29;20470;-81
2021/04/15 11:00:57;;;;;;;8.35;7.50;;;10.80;1.00;217.30;162243.00;;;;4946931;28;20822;-80
2021/04/15 11:03:34;;;;;;;9.70;7.13;;;11.00;1.00;12.90;101686.00;;;;4938835;29;20510;-80
2021/04/15 11:06:01;;;;;;;6.30;4.60;;;11.10;1.00;12.90;101686.00;;;;4937701;29;20435;-83
2021/04/15 11:08:31;;;;;;;7.35;4.50;;;11.10;1.00;13.00;101686.00;;;;4959069;29;20431;-81
2021/04/15 11:11:11;;;;;;;4.90;3.30;;;11.00;1.00;13.00;101685.00;;;;4952823;29;20483;-81
2021/04/15 11:13:40;;;;;;;7.00;4.50;;;11.10;1.00;13.40;101668.00;;;;4938908;29;20423;-81
2021/04/15 11:16:20;;;;;;;6.50;4.50;;;11.20;1.00;13.50;101677.00;;;;4934297;29;20419;-85
2021/04/15 11:18:49;;;;;;;4.70;2.90;;;11.30;1.00;217.30;162449.00;;;;4931963;29;20421;-81
2021/04/15 11:21:31;;;;;;;4.63;3.00;;;11.20;1.00;12.90;101679.00;;;;4943314;29;20682;-80
2021/04/15 11:24:26;;;;;;;5.38;3.67;;;10.80;1.00;12.70;101683.00;;;;4949135;29;20494;-81
2021/04/15 11:26:56;;;;;;;9.25;4.90;;;10.60;1.00;12.80;101683.00;;;;4944293;29;20414;-81
2021/04/15 11:29:30;;;;;;;7.13;5.07;;;10.60;1.00;12.80;101678.00;;;;4928879;29;20465;-80
2021/04/15 11:31:58;;;;;;;9.48;6.07;;;10.60;1.00;52.70;162223.00;;;;4932592;29;20429;-80
2021/04/15 11:35:00;;;;;;;6.63;5.25;;;10.70;1.00;217.30;162340.00;;;;4920476;29;20436;-80
2021/04/15 11:37:28;;;;;;;7.07;6.00;;;10.80;1.00;217.30;162261.00;;;;4929795;29;20502;-81
2021/04/15 11:40:17;;;;;;;8.55;6.00;;;10.80;1.00;13.00;101660.00;;;;4936296;29;21399;-81
2021/04/15 11:42:45;;;;;;;8.80;7.15;;;10.80;1.00;12.80;101641.00;;;;4921994;29;20440;-82
2021/04/15 11:45:31;;;;;;;12.05;6.80;;;10.70;1.00;217.30;162174.00;;;;4922972;29;20436;-81
2021/04/15 11:48:18;;;;;;;8.10;5.60;;;10.80;1.00;12.50;101656.00;;;;4934042;29;20420;-82
2021/04/15 11:50:47;;;;;;;8.30;5.10;;;10.70;1.00;12.60;101645.00;;;;4930368;29;20801;-81
2021/04/15 11:53:44;;;;;;;8.27;4.55;;;10.70;1.00;13.30;101642.00;;;;4928589;29;20435;-83
2021/04/15 11:56:35;;;;;;;6.65;4.70;;;11.30;1.00;14.20;101641.00;;;;4933075;29;20431;-81